Time;durP1;ratioP1;P1;durP2;ratioP2;P2;SDS_P1;SDS_P2;PMS_P1;PMS_P2;Temp;Humidity;BMP_temperature;BMP_pressure;BME280_temperature;BME280_humidity;BME280_pressure;Samples;Min_cycle;Max_cycle;Signal;HPM_P1;HPM_P2
2022/06/24 00:01:34;;;;;;;30.13;6.85;;;;;;;-143.10;72.88;50904.97;5026997;28;20057;-67
2022/06/24 00:04:16;;;;;;;22.25;7.00;;;;;;;-143.10;72.98;50920.63;5038516;28;20049;-67
2022/06/24 00:07:16;;;;;;;22.80;6.30;;;;;;;-143.10;74.40;50903.00;5047741;28;20049;-67
2022/06/24 00:10:05;;;;;;;23.67;7.05;;;;;;;-143.10;74.78;50889.31;5046865;28;20083;-67
2022/06/24 00:12:48;;;;;;;23.23;6.53;;;;;;;-143.10;72.82;50897.13;5046980;28;20052;-67
2022/06/24 00:15:41;;;;;;;22.10;7.82;;;;;;;-143.10;74.01;50908.88;5046234;28;20309;-65
2022/06/24 00:18:23;;;;;;;24.15;6.45;;;;;;;-143.10;74.34;50883.44;5028851;28;20364;-66
2022/06/24 00:21:19;;;;;;;24.55;6.72;;;;;;;-143.10;73.31;50918.66;5046628;28;20053;-66
2022/06/24 00:24:21;;;;;;;32.45;7.28;;;;;;;-143.10;74.87;50897.13;5046381;28;20045;-66
2022/06/24 00:27:25;;;;;;;28.55;6.63;;;;;;;-143.10;76.68;50879.50;5046474;28;20076;-66
2022/06/24 00:30:22;;;;;;;27.10;7.30;;;;;;;-143.10;75.10;50885.38;5028379;28;20040;-66
2022/06/24 00:33:15;;;;;;;23.10;8.35;;;;;;;-143.10;73.20;50903.00;5046144;28;20059;-66
2022/06/24 00:36:11;;;;;;;29.33;7.90;;;;;;;-143.10;75.15;50885.38;5046115;28;20052;-66
2022/06/24 00:39:06;;;;;;;27.48;7.53;;;;;;;-143.10;73.44;50920.63;5030871;28;20480;-66
2022/06/24 00:41:42;;;;;;;34.53;7.40;;;;;;;-143.10;74.79;50904.97;5046209;28;20049;-67
2022/06/24 00:44:51;;;;;;;27.08;7.35;;;;;;;-143.10;75.28;50889.31;5046084;28;20051;-66
2022/06/24 00:47:28;;;;;;;28.77;8.20;;;;;;;-143.10;77.00;50922.59;5045507;28;20055;-66
2022/06/24 00:50:26;;;;;;;19.08;7.25;;;;;;;-143.10;74.61;50908.88;5045544;28;20053;-66
2022/06/24 00:53:15;;;;;;;37.42;8.68;;;;;;;-143.10;74.97;50854.06;5046139;28;20172;-66
2022/06/24 00:55:57;;;;;;;21.67;8.05;;;;;;;-143.10;74.37;50904.97;5046177;28;20197;-65
2022/06/24 00:58:47;;;;;;;32.38;7.82;;;;;;;-143.10;73.38;50912.78;5059747;28;20091;-66
2022/06/24 01:01:49;;;;;;;38.75;8.65;;;;;;;-143.10;74.08;50928.44;5064716;28;20056;-66
2022/06/24 01:04:40;;;;;;;31.02;9.25;;;;;;;-143.10;73.07;50903.00;5058489;28;20045;-66
2022/06/24 01:07:28;;;;;;;28.98;9.40;;;;;;;-143.10;73.53;50924.53;5050216;27;20519;-66
2022/06/24 01:10:23;;;;;;;25.63;8.32;;;;;;;-143.10;73.69;50940.19;5052692;28;21192;-66
2022/06/24 01:12:59;;;;;;;29.20;8.02;;;;;;;-143.10;71.76;50877.56;5046260;28;20041;-66
2022/06/24 01:15:48;;;;;;;28.60;8.45;;;;;;;-143.10;69.42;50928.44;5045548;28;20139;-66
2022/06/24 01:18:30;;;;;;;34.35;8.90;;;;;;;-143.10;71.28;50930.41;5045376;28;20141;-66
2022/06/24 01:21:31;;;;;;;27.13;8.32;;;;;;;-143.10;70.67;50897.13;5045394;28;20118;-66
2022/06/24 01:24:27;;;;;;;29.73;9.18;;;;;;;-143.10;70.20;50867.75;5045630;28;20063;-67
2022/06/24 01:27:17;;;;;;;35.77;9.37;;;;;;;-143.10;71.15;50897.13;5045255;28;20568;-67
2022/06/24 01:30:05;;;;;;;28.77;8.85;;;;;;;-143.10;73.87;50904.97;5045797;28;20055;-66
2022/06/24 01:32:47;;;;;;;37.38;10.00;;;;;;;-143.10;68.37;50867.75;5045376;28;20073;-66
2022/06/24 01:35:36;;;;;;;36.58;8.82;;;;;;;-143.10;67.49;50897.13;5045413;28;20719;-66
2022/06/24 01:38:31;;;;;;;34.65;9.15;;;;;;;-143.10;69.84;50950.00;5045458;28;20041;-66
2022/06/24 01:41:08;;;;;;;26.98;7.97;;;;;;;-143.10;66.56;50885.38;5045706;28;20124;-67
2022/06/24 01:44:04;;;;;;;27.88;8.35;;;;;;;-143.10;67.38;50893.22;5045474;28;20052;-65
2022/06/24 01:46:40;;;;;;;38.28;10.52;;;;;;;-143.10;65.27;50889.31;5038732;28;20528;-66
2022/06/24 01:49:35;;;;;;;34.25;10.15;;;;;;;-143.10;64.11;50881.47;5043729;28;20551;-66
2022/06/24 01:52:11;;;;;;;32.97;8.82;;;;;;;-143.10;63.45;50867.75;5024916;28;20481;-66
2022/06/24 01:55:06;;;;;;;38.95;10.00;;;;;;;-143.10;62.18;50901.03;5043414;28;20052;-66
2022/06/24 01:57:42;;;;;;;43.15;11.05;;;;;;;-143.10;61.23;50897.13;5024733;28;20127;-66
2022/06/24 02:00:36;;;;;;;24.38;9.75;;;;;;;-143.10;59.14;50877.56;5024189;28;20116;-67
2022/06/24 02:03:12;;;;;;;36.63;9.90;;;;;;;-143.10;60.83;50859.94;5024485;28;20136;-67
2022/06/24 02:06:09;;;;;;;34.13;9.20;;;;;;;-143.10;57.98;50859.94;5025062;28;20227;-67
2022/06/24 02:08:58;;;;;;;28.15;9.40;;;;;;;-143.10;57.35;50850.16;5027194;28;20111;-67
2022/06/24 02:14:48;;;;;;;35.50;9.25;;;;;;;-143.10;53.93;50881.47;5007391;28;20053;-67
2022/06/24 02:17:37;;;;;;;31.73;8.95;;;;;;;-143.10;56.36;50857.97;5021257;28;20069;-65
2022/06/24 02:20:19;;;;;;;29.40;9.95;;;;;;;-143.10;50.56;50838.41;5023373;28;20044;-66
2022/06/24 02:23:15;;;;;;;25.50;9.80;;;;;;;-143.10;53.11;50834.47;5023066;28;20139;-66
2022/06/24 02:25:51;;;;;;;36.38;8.57;;;;;;;-143.10;50.33;50877.56;5023701;28;20049;-64
2022/06/24 02:28:46;;;;;;;34.50;10.18;;;;;;;-143.10;48.85;50859.94;5023266;28;20503;-67
2022/06/24 02:31:22;;;;;;;26.15;8.40;;;;;;;-143.10;51.66;50807.06;5023386;28;20068;-66
2022/06/24 02:34:18;;;;;;;24.05;8.30;;;;;;;-143.10;49.76;50844.28;5008044;28;20072;-67
2022/06/24 02:36:54;;;;;;;33.95;8.15;;;;;;;-143.10;46.81;50805.13;5007029;28;20161;-66
2022/06/24 02:39:42;;;;;;;40.47;9.32;;;;;;;-143.10;46.88;50826.66;5022808;28;20049;-66
2022/06/24 02:42:31;;;;;;;29.58;8.80;;;;;;;-143.10;48.03;50820.78;5035394;28;20064;-66
2022/06/24 02:45:14;;;;;;;36.30;8.82;;;;;;;-143.10;45.88;50857.97;5042454;28;20045;-65
2022/06/24 02:48:03;;;;;;;32.30;8.45;;;;;;;-143.10;47.33;50834.47;5040935;28;20147;-67
2022/06/24 02:50:48;;;;;;;30.65;9.13;;;;;;;-143.10;45.97;50852.09;5040349;28;20051;-66
2022/06/24 02:53:39;;;;;;;34.95;9.73;;;;;;;-143.10;46.60;50840.34;5040964;28;20041;-66
2022/06/24 02:56:21;;;;;;;36.60;9.02;;;;;;;-143.10;45.57;50818.81;5041738;28;20045;-66
2022/06/24 02:59:10;;;;;;;26.38;7.55;;;;;;;-143.10;44.38;50852.09;5041259;28;20045;-67
2022/06/24 03:01:52;;;;;;;28.25;9.00;;;;;;;-143.10;43.91;50846.22;5042557;28;20070;-66
2022/06/24 03:04:41;;;;;;;28.20;8.48;;;;;;;-143.10;44.16;50854.06;5042401;28;20133;-66
2022/06/24 03:07:23;;;;;;;26.65;8.15;;;;;;;-143.10;44.61;50830.56;5024274;28;20071;-67
2022/06/24 03:10:18;;;;;;;34.10;7.70;;;;;;;-143.10;43.96;50834.47;5042960;28;20501;-65
2022/06/24 03:13:07;;;;;;;37.35;8.80;;;;;;;-143.10;44.02;50807.06;5027797;28;20888;-66
2022/06/24 03:15:57;;;;;;;46.10;7.88;;;;;;;-143.10;47.10;50822.75;5045715;28;20809;-67
2022/06/24 03:18:52;;;;;;;40.15;9.07;;;;;;;-143.10;42.90;50809.03;5031447;28;20041;-64
2022/06/24 03:21:28;;;;;;;30.25;8.45;;;;;;;-143.10;43.05;50814.91;5047587;28;20571;-67
2022/06/24 03:24:16;;;;;;;27.52;8.30;;;;;;;-143.10;46.59;50828.59;5047448;28;20154;-67
2022/06/24 03:27:08;;;;;;;33.22;8.35;;;;;;;-143.10;42.29;50795.34;5047862;28;20051;-67
2022/06/24 03:29:57;;;;;;;32.00;10.05;;;;;;;-143.10;43.88;50793.38;5047501;28;20567;-68
2022/06/24 03:32:40;;;;;;;31.15;9.48;;;;;;;-143.10;44.10;50840.34;5047382;28;20556;-67
2022/06/24 03:35:29;;;;;;;34.88;11.70;;;;;;;-143.10;43.67;50836.44;5046956;28;20124;-67
2022/06/24 03:38:11;;;;;;;46.67;10.00;;;;;;;-143.10;43.54;50830.56;5048212;28;20065;-67
2022/06/24 03:41:00;;;;;;;37.72;10.10;;;;;;;-143.10;41.75;50834.47;5048197;28;20060;-67
2022/06/24 03:43:49;;;;;;;34.10;9.13;;;;;;;-143.10;41.73;50842.31;5047414;28;20045;-67
2022/06/24 03:46:38;;;;;;;30.08;9.40;;;;;;;-143.10;42.88;50832.53;5040359;28;20045;-67
2022/06/24 03:49:20;;;;;;;44.55;10.23;;;;;;;-143.10;41.68;50854.06;5046732;28;20132;-67
2022/06/24 03:52:16;;;;;;;40.63;10.70;;;;;;;-143.10;41.84;50836.44;5047248;28;20041;-65
2022/06/24 03:54:52;;;;;;;43.05;11.25;;;;;;;-143.10;44.11;50830.56;5064969;28;20162;-67
2022/06/24 03:57:46;;;;;;;42.55;10.85;;;;;;;-143.10;41.98;50830.56;5067043;28;20102;-67
2022/06/24 04:00:22;;;;;;;32.95;10.43;;;;;;;-143.10;41.38;50826.66;5066771;28;20067;-68
2022/06/24 04:03:11;;;;;;;34.92;10.27;;;;;;;-143.10;44.11;50842.31;5066898;28;20044;-69
2022/06/24 04:05:54;;;;;;;38.72;11.18;;;;;;;-143.10;41.31;50834.47;5033696;28;20257;-69
2022/06/24 04:08:49;;;;;;;38.70;12.45;;;;;;;-143.10;42.81;50826.66;5048773;28;20041;-68
2022/06/24 04:11:44;;;;;;;41.10;11.73;;;;;;;-143.10;42.09;50812.94;5046439;28;20130;-67
2022/06/24 04:17:40;;;;;;;32.80;10.43;;;;;;;-143.10;39.47;50809.03;5033162;28;20768;-67
2022/06/24 04:20:29;;;;;;;41.83;11.00;;;;;;;-143.10;40.86;50803.16;5045697;28;20064;-68
2022/06/24 04:23:11;;;;;;;37.60;10.65;;;;;;;-143.10;40.02;50801.19;5045971;28;20414;-68
2022/06/24 04:26:00;;;;;;;36.63;12.77;;;;;;;-143.10;41.40;50795.34;5046755;28;20051;-68
2022/06/24 04:28:49;;;;;;;36.13;11.43;;;;;;;-143.10;41.16;50830.56;5046157;28;20111;-67
2022/06/24 04:31:31;;;;;;;33.30;11.75;;;;;;;-143.10;40.99;50779.66;5046310;28;20041;-69
2022/06/24 04:34:20;;;;;;;40.90;12.05;;;;;;;-143.10;42.01;50801.19;5045945;28;20132;-67
2022/06/24 04:37:02;;;;;;;40.05;11.18;;;;;;;-143.10;40.97;50799.25;5046607;28;20644;-64
2022/06/24 04:39:51;;;;;;;32.95;10.45;;;;;;;-143.10;40.08;50818.81;5046232;28;20045;-64
2022/06/24 04:42:40;;;;;;;33.20;10.95;;;;;;;-143.10;40.77;50803.16;5046242;28;20040;-65
2022/06/24 04:45:30;;;;;;;38.50;9.38;;;;;;;-143.10;38.61;50812.94;5045776;28;20454;-65
2022/06/24 04:48:13;;;;;;;;;;;;;;;-143.10;38.88;50807.06;5046497;28;20083;-65
2022/06/24 04:51:02;;;;;;;24.38;8.70;;;;;;;-143.10;38.40;50799.25;5030909;28;20599;-65
2022/06/24 04:53:52;;;;;;;41.30;9.52;;;;;;;-143.10;42.11;50811.00;5046234;28;20052;-65
2022/06/24 04:56:41;;;;;;;39.72;11.35;;;;;;;-143.10;38.64;50773.78;5046191;28;20118;-64
2022/06/24 04:59:30;;;;;;;27.92;9.73;;;;;;;-143.10;38.85;50775.75;5045803;28;20678;-65
2022/06/24 05:02:12;;;;;;;36.97;10.80;;;;;;;-143.10;42.97;50783.59;5045701;28;20436;-64
2022/06/24 05:05:01;;;;;;;38.47;11.88;;;;;;;-143.10;40.08;50771.84;5045995;28;20052;-64
2022/06/24 05:07:43;;;;;;;41.05;11.48;;;;;;;-143.10;39.32;50811.00;5044918;28;20045;-65
2022/06/24 05:10:39;;;;;;;49.47;10.93;;;;;;;-143.10;41.37;50789.47;5046117;28;20041;-65
2022/06/24 05:13:28;;;;;;;40.13;10.32;;;;;;;-143.10;40.54;50816.88;5045595;28;20049;-65
2022/06/24 05:16:17;;;;;;;44.42;11.95;;;;;;;-143.10;37.81;50787.50;5045493;28;20521;-65
2022/06/24 05:19:21;;;;;;;38.15;12.07;;;;;;;-143.10;41.18;50791.41;5044791;28;20056;-66
2022/06/24 05:22:03;;;;;;;32.30;11.23;;;;;;;-143.10;37.58;50775.75;5029270;28;20707;-65
2022/06/24 05:24:52;;;;;;;32.90;9.00;;;;;;;-143.10;37.83;50764.00;5045252;28;20758;-65
2022/06/24 05:27:34;;;;;;;39.40;9.75;;;;;;;-143.10;37.51;50764.00;5036732;28;20045;-65
2022/06/24 05:30:23;;;;;;;49.78;13.88;;;;;;;-143.10;39.52;50764.00;5025275;28;20046;-65
2022/06/24 05:33:05;;;;;;;39.63;12.43;;;;;;;-143.10;38.10;50799.25;5009337;28;20045;-64
2022/06/24 05:35:55;;;;;;;36.67;11.68;;;;;;;-143.10;36.70;50771.84;5007100;28;20496;-64
2022/06/24 05:38:37;;;;;;;39.70;12.80;;;;;;;-143.10;36.69;50795.34;5025267;28;20049;-64
2022/06/24 05:41:26;;;;;;;41.25;14.25;;;;;;;-143.10;38.23;50803.16;5025293;28;20053;-64
2022/06/24 05:44:08;;;;;;;38.00;12.55;;;;;;;-143.10;37.91;50791.41;5025046;28;20051;-65
2022/06/24 05:46:57;;;;;;;43.42;13.88;;;;;;;-143.10;37.22;50793.38;5025254;28;20053;-66
2022/06/24 05:49:39;;;;;;;46.10;13.95;;;;;;;-143.10;38.29;50785.53;5043828;28;20069;-65
2022/06/24 05:55:28;;;;;;;48.22;13.95;;;;;;;-143.10;38.40;50795.34;5044686;28;20048;-65
2022/06/24 05:58:17;;;;;;;48.38;15.80;;;;;;;-143.10;39.11;50807.06;5044480;28;20045;-65
2022/06/24 06:01:12;;;;;;;43.53;15.85;;;;;;;-143.10;41.47;50758.13;5029369;28;20048;-64
2022/06/24 06:04:01;;;;;;;52.30;16.52;;;;;;;-143.10;39.87;50803.16;5044225;28;20056;-65
2022/06/24 06:06:43;;;;;;;43.50;14.80;;;;;;;-143.10;40.13;50805.13;5043881;28;20543;-65
2022/06/24 06:09:33;;;;;;;50.60;18.48;;;;;;;-143.10;41.29;50785.53;5034658;28;20041;-64
2022/06/24 06:12:29;;;;;;;39.08;14.95;;;;;;;-143.10;40.27;50807.06;5047847;28;20124;-65
2022/06/24 06:15:24;;;;;;;48.70;16.88;;;;;;;-143.10;40.27;50765.97;5024151;28;20053;-64
2022/06/24 06:18:13;;;;;;;44.15;17.05;;;;;;;-143.10;40.88;50769.88;5023918;28;20123;-65
2022/06/24 06:20:55;;;;;;;42.30;17.15;;;;;;;-143.10;42.21;50765.97;5024665;28;20045;-65
2022/06/24 06:23:45;;;;;;;55.50;16.95;;;;;;;-143.10;39.24;50807.06;5023559;28;20108;-64
2022/06/24 06:26:29;;;;;;;;;;;;;;;-143.10;38.81;50781.63;5024058;28;20064;-64
2022/06/24 06:29:22;;;;;;;50.30;18.55;;;;;;;-143.10;41.24;50783.59;4989642;28;19929;-65
2022/06/24 06:32:11;;;;;;;46.90;18.02;;;;;;;-143.10;41.35;50787.50;5004422;28;20046;-66
2022/06/24 06:34:53;;;;;;;51.90;19.30;;;;;;;-143.10;42.26;50787.50;5005176;28;20050;-65
2022/06/24 06:37:42;;;;;;;56.40;18.42;;;;;;;-143.10;41.36;50803.16;5004425;28;20056;-65
2022/06/24 06:40:31;;;;;;;55.17;19.00;;;;;;;-143.10;41.46;50773.78;5004069;28;20109;-64
2022/06/24 06:43:13;;;;;;;42.20;15.15;;;;;;;-143.10;39.72;50791.41;5004178;28;20112;-66
2022/06/24 06:46:02;;;;;;;42.40;13.57;;;;;;;-143.10;40.58;50775.75;5004426;28;20057;-66
2022/06/24 06:48:44;;;;;;;41.88;14.65;;;;;;;-143.10;36.77;50779.66;5015745;28;20647;-64
2022/06/24 06:51:33;;;;;;;38.08;12.23;;;;;;;-143.10;42.52;50779.66;5024021;28;20053;-65
2022/06/24 06:54:15;;;;;;;44.80;16.33;;;;;;;-143.10;44.10;50803.16;5023985;28;20168;-65
2022/06/24 06:57:20;;;;;;;57.45;17.95;;;;;;;-143.10;41.12;50775.75;5023744;28;20076;-65
2022/06/24 07:00:10;;;;;;;49.85;16.77;;;;;;;-143.10;40.70;50767.91;5024489;28;20063;-66
2022/06/24 07:02:59;;;;;;;56.40;16.90;;;;;;;-143.10;37.30;50805.13;5023857;28;20064;-66
2022/06/24 07:05:48;;;;;;;47.67;14.43;;;;;;;-143.10;37.92;50765.97;5023548;28;20186;-66
2022/06/24 07:08:37;;;;;;;38.67;15.20;;;;;;;-143.10;42.36;50781.63;5023592;28;20045;-64
2022/06/24 07:11:26;;;;;;;39.17;14.15;;;;;;;-143.10;40.92;50775.75;5023177;28;20053;-64
2022/06/24 07:14:22;;;;;;;36.55;12.77;;;;;;;-143.10;44.29;50765.97;5014340;28;20044;-66
2022/06/24 07:17:17;;;;;;;45.22;14.43;;;;;;;-143.10;42.13;50775.75;5037316;28;20056;-64
2022/06/24 07:19:53;;;;;;;45.30;13.88;;;;;;;-143.10;38.32;50785.53;5044069;28;20052;-64
2022/06/24 07:22:47;;;;;;;44.05;11.77;;;;;;;-143.10;36.26;50787.50;5025462;28;20053;-65
2022/06/24 07:25:22;;;;;;;39.30;11.23;;;;;;;-143.10;36.81;50787.50;5043285;28;20060;-65
2022/06/24 07:28:17;;;;;;;30.00;10.10;;;;;;;-143.10;35.73;50767.91;5042891;28;20055;-65
2022/06/24 07:30:53;;;;;;;32.10;8.98;;;;;;;-143.10;35.25;50775.75;5043577;28;20468;-65
2022/06/24 07:33:47;;;;;;;27.13;7.88;;;;;;;-143.10;36.24;50752.25;5042991;28;20049;-64
2022/06/24 07:36:23;;;;;;;32.28;7.88;;;;;;;-143.10;36.92;50775.75;5043434;28;20052;-65
2022/06/24 07:39:18;;;;;;;35.88;9.75;;;;;;;-143.10;37.26;50758.13;5025839;28;20048;-65
2022/06/24 07:41:54;;;;;;;26.02;8.82;;;;;;;-143.10;37.86;50781.63;5043544;28;20371;-64
2022/06/24 07:44:49;;;;;;;27.40;6.32;;;;;;;-143.10;35.64;50779.66;5043906;28;20103;-65
2022/06/24 07:47:24;;;;;;;31.88;7.68;;;;;;;-143.10;36.22;50769.88;5044083;28;20428;-64
2022/06/24 07:50:19;;;;;;;24.30;5.78;;;;;;;-143.10;36.25;50803.16;5043460;28;20049;-65
2022/06/24 07:52:55;;;;;;;25.58;5.90;;;;;;;-143.10;35.36;50771.84;5043465;28;20076;-64
2022/06/24 07:58:43;;;;;;;32.85;5.78;;;;;;;-143.10;36.53;50752.25;5045666;28;20049;-64
2022/06/24 08:01:33;;;;;;;21.15;5.35;;;;;;;-143.10;35.79;50746.38;5038724;28;20539;-65
2022/06/24 08:04:15;;;;;;;;;;;;;;;-143.10;36.33;50779.66;5029569;28;20041;-64
2022/06/24 08:07:11;;;;;;;22.00;6.10;;;;;;;-143.10;34.05;50781.63;5047261;28;19921;-64
2022/06/24 08:09:47;;;;;;;19.35;5.13;;;;;;;-143.10;36.05;50765.97;5046537;28;20045;-64
2022/06/24 08:12:36;;;;;;;14.85;5.03;;;;;;;-143.10;34.79;50760.09;5046989;28;20172;-65
2022/06/24 08:15:24;;;;;;;39.78;7.70;;;;;;;-143.10;34.51;50754.22;5048384;28;20060;-64
2022/06/24 08:18:20;;;;;;;21.02;4.20;;;;;;;-143.10;33.31;50752.25;5045268;28;20044;-64
2022/06/24 08:20:55;;;;;;;21.17;4.55;;;;;;;-143.10;33.67;50771.84;5025338;28;20050;-65
2022/06/24 08:23:44;;;;;;;29.60;5.57;;;;;;;-143.10;33.63;50775.75;5025469;28;20107;-63
2022/06/24 08:26:33;;;;;;;19.13;4.13;;;;;;;-143.10;33.31;50762.06;5026199;28;20056;-64
2022/06/24 08:29:15;;;;;;;21.02;6.10;;;;;;;-143.10;33.43;50744.44;5064853;28;20508;-64
2022/06/24 08:32:04;;;;;;;36.60;6.22;;;;;;;-143.10;34.35;50748.34;5065411;28;20040;-63
2022/06/24 08:34:46;;;;;;;18.05;3.65;;;;;;;-143.10;32.03;50760.09;5065559;28;20052;-64
2022/06/24 08:37:55;;;;;;;17.92;3.58;;;;;;;-143.10;32.90;50760.09;5065197;28;20041;-64
2022/06/24 08:40:37;;;;;;;21.23;4.60;;;;;;;-143.10;33.48;50779.66;5064799;28;20441;-64
2022/06/24 08:43:28;;;;;;;24.45;3.83;;;;;;;-143.10;32.89;50779.66;5029861;28;20467;-64
2022/06/24 08:46:10;;;;;;;17.75;3.55;;;;;;;-143.10;31.21;50758.13;5064460;28;20051;-63
2022/06/24 08:48:59;;;;;;;16.45;3.83;;;;;;;-143.10;31.54;50752.25;5051589;28;20119;-64
2022/06/24 08:51:42;;;;;;;11.02;3.00;;;;;;;-143.10;32.43;50740.50;5044758;28;20045;-63
2022/06/24 08:54:35;;;;;;;19.83;4.20;;;;;;;-143.10;31.56;50783.59;5044079;28;20114;-64
2022/06/24 08:57:17;;;;;;;19.25;3.47;;;;;;;-143.10;32.91;50720.94;5043600;28;20487;-63
2022/06/24 09:00:06;;;;;;;28.55;3.85;;;;;;;-143.10;31.58;50762.06;5044491;28;20048;-64
2022/06/24 09:02:48;;;;;;;21.75;4.65;;;;;;;-143.10;31.08;50756.19;5044707;28;20048;-64
2022/06/24 09:05:38;;;;;;;18.92;4.90;;;;;;;-143.10;31.10;50752.25;5044260;28;20122;-64
2022/06/24 09:08:20;;;;;;;19.10;4.53;;;;;;;-143.10;32.13;50744.44;5042734;28;20067;-65
2022/06/24 09:11:14;;;;;;;18.15;3.88;;;;;;;-143.10;34.08;50754.22;5031817;28;20469;-64
2022/06/24 09:14:00;;;;;;;20.55;3.58;;;;;;;-143.10;32.08;50746.38;5033142;28;20069;-65
2022/06/24 09:16:54;;;;;;;17.80;3.90;;;;;;;-143.10;32.86;50752.25;5033207;28;20123;-65
2022/06/24 09:19:32;;;;;;;16.05;4.32;;;;;;;-143.10;33.51;50746.38;5027333;28;20107;-62
2022/06/24 09:22:22;;;;;;;15.98;3.78;;;;;;;-143.10;33.07;50748.34;5045500;28;20460;-64
2022/06/24 09:25:13;;;;;;;19.02;2.90;;;;;;;-143.10;32.82;50769.88;5044914;28;20058;-64
2022/06/24 09:27:58;;;;;;;16.35;4.18;;;;;;;-143.10;31.18;50748.34;5045771;28;20060;-64
2022/06/24 09:30:47;;;;;;;21.67;3.58;;;;;;;-143.10;33.42;50769.88;5045397;28;20154;-64
2022/06/24 09:33:41;;;;;;;17.80;4.35;;;;;;;-143.10;33.24;50771.84;5045329;28;20049;-64
2022/06/24 09:36:32;;;;;;;21.42;4.57;;;;;;;-143.10;33.07;50760.09;5044899;28;20614;-64
2022/06/24 09:39:22;;;;;;;20.00;4.68;;;;;;;-143.10;32.89;50777.72;5044885;28;20044;-64
2022/06/24 09:42:11;;;;;;;20.00;3.85;;;;;;;-143.10;31.67;50750.31;5043654;28;20746;-64
2022/06/24 09:44:54;;;;;;;22.85;3.90;;;;;;;-143.10;34.95;50777.72;5027734;28;20145;-66
2022/06/24 09:47:46;;;;;;;23.50;4.72;;;;;;;-143.10;33.80;50752.25;5027289;28;20048;-65
2022/06/24 09:50:29;;;;;;;24.60;4.82;;;;;;;-143.10;33.14;50764.00;5045089;28;20110;-64
2022/06/24 09:53:20;;;;;;;12.05;3.28;;;;;;;-143.10;31.88;50762.06;5045540;28;20041;-66
2022/06/24 09:56:04;;;;;;;16.27;3.60;;;;;;;-143.10;31.51;50781.63;5045494;28;20059;-65
2022/06/24 10:02:02;;;;;;;14.30;4.80;;;;;;;-143.10;33.31;50752.25;5044710;28;20107;-64
2022/06/24 10:04:59;;;;;;;20.13;4.05;;;;;;;-143.10;32.17;50779.66;5044646;28;20053;-65
2022/06/24 10:07:45;;;;;;;16.35;3.83;;;;;;;-143.10;32.65;50756.19;5044720;28;20115;-64
2022/06/24 10:10:36;;;;;;;30.42;4.97;;;;;;;-143.10;33.32;50756.19;5044195;28;20126;-64
2022/06/24 10:13:25;;;;;;;11.30;4.25;;;;;;;-143.10;31.76;50754.22;5043930;28;20049;-64
2022/06/24 10:16:14;;;;;;;15.82;4.05;;;;;;;-143.10;33.13;50754.22;5042404;28;20057;-66
2022/06/24 10:19:05;;;;;;;24.25;4.50;;;;;;;-143.10;31.61;50767.91;5024707;28;20139;-64
2022/06/24 10:21:48;;;;;;;26.85;4.80;;;;;;;-143.10;32.62;50767.91;5023954;28;20056;-64
2022/06/24 10:24:44;;;;;;;20.80;4.53;;;;;;;-143.10;32.50;50748.34;5024682;28;20401;-64
2022/06/24 10:28:06;;;;;;;19.63;3.95;;;;;;;-143.10;32.54;50707.22;5023967;28;20045;-65
2022/06/24 10:30:49;;;;;;;23.17;4.43;;;;;;;-143.10;31.67;50726.81;5021952;28;20588;-65
2022/06/24 10:33:39;;;;;;;48.25;6.82;;;;;;;-143.10;32.60;50748.34;5024420;28;20045;-64
2022/06/24 10:36:31;;;;;;;35.58;4.40;;;;;;;-143.10;32.09;50756.19;5023924;28;20049;-64
2022/06/24 10:39:28;;;;;;;18.23;4.63;;;;;;;-143.10;32.62;50742.47;5023935;28;20060;-64
2022/06/24 10:42:11;;;;;;;20.75;4.10;;;;;;;-143.10;31.24;50752.25;5023657;28;20068;-64
2022/06/24 10:45:07;;;;;;;21.73;4.60;;;;;;;-143.10;31.77;50734.66;5024323;28;20041;-64
2022/06/24 10:47:49;;;;;;;18.20;4.72;;;;;;;-143.10;32.03;50742.47;5023961;28;20048;-64
2022/06/24 10:50:38;;;;;;;16.27;3.67;;;;;;;-143.10;32.57;50740.50;5023656;28;20802;-65
2022/06/24 10:53:27;;;;;;;16.88;3.78;;;;;;;-143.10;31.58;50746.38;5023919;28;20053;-65
2022/06/24 10:56:09;;;;;;;17.58;3.50;;;;;;;-143.10;32.08;50742.47;5023609;28;20061;-64
2022/06/24 10:58:58;;;;;;;15.57;4.20;;;;;;;-143.10;32.46;50748.34;5024243;28;20388;-65
2022/06/24 11:01:40;;;;;;;15.50;4.15;;;;;;;-143.10;33.78;50787.50;5023748;28;20530;-65
2022/06/24 11:04:31;;;;;;;20.58;4.20;;;;;;;-143.10;32.18;50760.09;5023708;28;20136;-65
2022/06/24 11:07:22;;;;;;;20.88;4.50;;;;;;;-143.10;32.23;50764.00;5023705;28;20120;-64
2022/06/24 11:10:16;;;;;;;19.92;3.85;;;;;;;-143.10;31.64;50756.19;4993921;28;20034;-64
2022/06/24 11:13:07;;;;;;;25.00;4.30;;;;;;;-143.10;32.92;50717.03;5023391;28;20042;-64
2022/06/24 11:15:53;;;;;;;26.83;5.47;;;;;;;-143.10;33.73;50746.38;5023856;28;20072;-64
2022/06/24 11:18:49;;;;;;;20.30;3.42;;;;;;;-143.10;31.95;50750.31;5044389;28;20045;-64
2022/06/24 11:21:51;;;;;;;22.42;4.47;;;;;;;-143.10;32.57;50744.44;5043504;28;20045;-64
2022/06/24 11:24:43;;;;;;;19.88;3.95;;;;;;;-143.10;31.80;50756.19;5044349;28;20055;-64
2022/06/24 11:27:36;;;;;;;22.48;4.05;;;;;;;-143.10;32.44;50738.56;5043800;28;20053;-64
2022/06/24 11:30:25;;;;;;;17.67;3.50;;;;;;;-143.10;34.86;50728.78;5043612;28;20049;-65
2022/06/24 11:33:07;;;;;;;18.38;3.63;;;;;;;-143.10;35.98;50795.34;5047382;28;20053;-64
2022/06/24 11:35:57;;;;;;;25.27;5.40;;;;;;;-143.10;34.58;50728.78;5047074;28;20048;-64
2022/06/24 11:38:55;;;;;;;19.73;3.95;;;;;;;-143.10;33.91;50732.69;5046057;28;20049;-64
2022/06/24 11:41:46;;;;;;;26.40;4.55;;;;;;;-143.10;34.67;50748.34;5046479;28;20580;-65
2022/06/24 11:44:39;;;;;;;22.83;3.97;;;;;;;-143.10;35.05;50720.94;5031445;28;20606;-65
2022/06/24 11:47:38;;;;;;;16.83;3.78;;;;;;;-143.10;35.39;50734.66;5028342;28;20057;-64
2022/06/24 11:50:20;;;;;;;20.98;4.70;;;;;;;-143.10;35.80;50752.25;5047051;28;20045;-64
2022/06/24 11:53:11;;;;;;;23.40;4.72;;;;;;;-143.10;35.65;50744.44;5046517;28;20668;-65
2022/06/24 11:56:00;;;;;;;18.00;4.55;;;;;;;-143.10;35.36;50756.19;5029764;28;20053;-65
2022/06/24 11:58:49;;;;;;;11.02;4.03;;;;;;;-143.10;34.67;50742.47;5048386;28;20472;-64
2022/06/24 12:01:32;;;;;;;25.08;4.03;;;;;;;-143.10;35.36;50769.88;5047005;28;20099;-63
2022/06/24 12:04:23;;;;;;;22.25;4.57;;;;;;;-143.10;36.51;50762.06;5046669;28;20340;-65
2022/06/24 12:07:16;;;;;;;22.77;4.38;;;;;;;-143.10;37.01;50728.78;5032905;28;20128;-65
2022/06/24 12:10:06;;;;;;;23.30;4.90;;;;;;;-143.10;36.85;50738.56;5047088;28;20060;-65
2022/06/24 12:12:57;;;;;;;28.65;5.88;;;;;;;-143.10;36.18;50767.91;5046191;28;20053;-64
2022/06/24 12:15:49;;;;;;;34.35;5.13;;;;;;;-143.10;37.62;50752.25;5043225;28;20052;-64
2022/06/24 12:18:44;;;;;;;23.23;4.65;;;;;;;-143.10;36.70;50754.22;5048923;28;20645;-63
2022/06/24 12:21:34;;;;;;;14.93;4.05;;;;;;;-143.10;37.63;50744.44;5046677;28;20048;-64
2022/06/24 12:24:30;;;;;;;16.95;4.93;;;;;;;-143.10;37.96;50750.31;5046126;28;20077;-64
2022/06/24 12:27:13;;;;;;;18.42;5.07;;;;;;;-143.10;37.26;50765.97;5045904;28;20045;-63
2022/06/24 12:30:02;;;;;;;23.23;4.13;;;;;;;-143.10;37.57;50754.22;5046508;28;20503;-63
2022/06/24 12:32:57;;;;;;;23.65;5.05;;;;;;;-143.10;37.80;50744.44;5046026;28;20115;-63
2022/06/24 12:35:49;;;;;;;27.42;5.38;;;;;;;-143.10;39.11;50732.69;5046456;28;20044;-65
2022/06/24 12:38:49;;;;;;;23.88;4.38;;;;;;;-143.10;38.27;50736.59;5046136;28;20456;-64
2022/06/24 12:41:25;;;;;;;27.98;4.43;;;;;;;-143.10;38.59;50758.13;5045970;28;20147;-65
2022/06/24 12:44:15;;;;;;;24.27;3.80;;;;;;;-143.10;40.24;50752.25;5045373;28;20060;-64
2022/06/24 12:53:21;;;;;;;24.38;4.95;;;;;;;-143.10;42.16;50744.44;5025858;28;20049;-64
2022/06/24 12:56:03;;;;;;;18.60;3.80;;;;;;;-143.10;45.12;50756.19;5026612;28;20048;-64
2022/06/24 12:58:53;;;;;;;14.80;4.13;;;;;;;-143.10;44.93;50756.19;5026261;28;20471;-64
2022/06/24 13:01:46;;;;;;;18.27;5.93;;;;;;;-143.10;41.91;50752.25;5019166;28;20049;-64
2022/06/24 13:04:35;;;;;;;24.13;4.40;;;;;;;-143.10;39.10;50760.09;5029679;28;20044;-65